createdAt,value
2022-07-27T00:02:51.652Z,15.40
2022-07-27T00:07:00.845Z,15.30
2022-07-27T00:11:10.525Z,15.20
2022-07-27T00:15:20.897Z,15.10
2022-07-27T00:19:29.606Z,15.10
2022-07-27T00:23:38.447Z,15.10
2022-07-27T00:27:47.466Z,15.00
2022-07-27T00:31:57.622Z,14.80
2022-07-27T00:36:08.973Z,14.80
2022-07-27T00:40:20.786Z,14.80
2022-07-27T00:44:30.575Z,14.80
2022-07-27T00:48:41.115Z,14.80
2022-07-27T00:52:50.923Z,14.80
2022-07-27T00:56:59.699Z,14.80
2022-07-27T01:01:08.913Z,14.80
2022-07-27T01:05:20.414Z,14.70
2022-07-27T01:09:46.489Z,14.70
2022-07-27T01:13:55.516Z,14.60
2022-07-27T01:18:04.337Z,14.60
2022-07-27T01:22:14.609Z,14.60
2022-07-27T01:26:23.469Z,14.60
2022-07-27T01:30:32.179Z,14.50
2022-07-27T01:34:40.981Z,14.40
2022-07-27T01:38:51.249Z,14.30
2022-07-27T01:43:00.089Z,14.30
2022-07-27T01:47:13.996Z,14.30
2022-07-27T01:51:24.990Z,14.20
2022-07-27T01:55:39.137Z,13.90
2022-07-27T01:59:48.032Z,13.90
2022-07-27T02:03:56.853Z,13.80
2022-07-27T02:08:06.081Z,13.60
2022-07-27T02:12:33.560Z,13.40
2022-07-27T02:16:42.395Z,13.30
2022-07-27T02:20:51.813Z,13.30
2022-07-27T02:25:00.576Z,13.30
2022-07-27T02:29:11.092Z,13.20
2022-07-27T02:33:20.171Z,13.10
2022-07-27T02:37:29.343Z,13.10
2022-07-27T02:41:38.148Z,13.10
2022-07-27T02:45:48.789Z,13.10
2022-07-27T02:49:57.515Z,13.00
2022-07-27T02:54:06.460Z,12.70
2022-07-27T02:58:15.176Z,12.60
2022-07-27T03:02:25.351Z,12.60
2022-07-27T03:06:34.033Z,12.50
2022-07-27T03:10:48.605Z,12.50
2022-07-27T03:14:58.954Z,12.50
2022-07-27T03:19:09.282Z,12.40
2022-07-27T03:23:19.939Z,12.40
2022-07-27T03:27:29.346Z,12.30
2022-07-27T03:31:38.086Z,12.40
2022-07-27T03:35:52.845Z,12.50
2022-07-27T03:40:01.557Z,12.50
2022-07-27T03:44:10.368Z,12.50
2022-07-27T03:48:19.134Z,12.50
2022-07-27T03:52:29.379Z,12.50
2022-07-27T03:56:38.077Z,12.50
2022-07-27T04:00:47.310Z,12.40
2022-07-27T04:04:56.084Z,12.50
2022-07-27T04:09:08.221Z,12.50
2022-07-27T04:13:22.864Z,12.40
2022-07-27T04:17:53.310Z,12.10
2022-07-27T04:22:00.554Z,12.00
2022-07-27T04:26:10.696Z,12.00
2022-07-27T04:30:19.696Z,12.00
2022-07-27T04:34:28.501Z,12.00
2022-07-27T04:38:37.313Z,12.00
2022-07-27T04:42:49.548Z,12.00
2022-07-27T04:46:58.740Z,12.20
2022-07-27T04:51:07.633Z,12.30
2022-07-27T04:55:16.958Z,12.40
2022-07-27T04:59:27.662Z,12.40
2022-07-27T05:03:36.464Z,12.50
2022-07-27T05:07:45.175Z,12.50
2022-07-27T05:11:53.942Z,12.60
2022-07-27T05:16:04.269Z,12.70
2022-07-27T05:20:14.034Z,12.90
2022-07-27T05:24:22.749Z,13.00
2022-07-27T05:28:31.899Z,13.10
2022-07-27T05:32:42.134Z,13.20
2022-07-27T05:36:50.956Z,13.30
2022-07-27T05:40:59.774Z,13.40
2022-07-27T05:45:10.355Z,13.40
2022-07-27T05:49:21.731Z,13.60
2022-07-27T05:53:30.617Z,13.60
2022-07-27T05:57:41.085Z,13.70
2022-07-27T06:01:49.839Z,13.80
2022-07-27T06:06:18.237Z,13.90
2022-07-27T06:10:27.418Z,14.00
2022-07-27T06:14:36.157Z,14.10
2022-07-27T06:18:44.875Z,14.20
2022-07-27T06:22:57.591Z,14.30
2022-07-27T06:27:06.471Z,14.40
2022-07-27T06:31:15.668Z,14.50
2022-07-27T06:35:25.087Z,14.60
2022-07-27T06:39:35.244Z,14.60
2022-07-27T06:43:44.113Z,14.60
2022-07-27T06:47:53.016Z,14.70
2022-07-27T06:52:01.854Z,14.70
2022-07-27T06:56:12.114Z,14.80
2022-07-27T07:00:20.850Z,14.90
2022-07-27T07:04:29.695Z,15.00
2022-07-27T07:08:38.375Z,15.10
2022-07-27T07:12:48.704Z,15.30
2022-07-27T07:16:57.394Z,15.40
2022-07-27T07:21:06.311Z,15.50
2022-07-27T07:25:15.159Z,15.70
2022-07-27T07:29:25.333Z,15.80
2022-07-27T07:33:34.269Z,15.90
2022-07-27T07:37:43.054Z,16.10
2022-07-27T07:41:53.142Z,16.20
2022-07-27T07:46:03.432Z,16.50
2022-07-27T07:50:12.597Z,16.70
2022-07-27T07:54:21.375Z,16.90
2022-07-27T07:58:31.552Z,17.10
2022-07-27T08:02:50.035Z,17.40
2022-07-27T08:06:58.813Z,17.50
2022-07-27T08:11:07.575Z,17.70
2022-07-27T08:15:17.626Z,17.80
2022-07-27T08:19:27.809Z,18.10
2022-07-27T08:23:36.650Z,18.20
2022-07-27T08:27:47.413Z,18.30
2022-07-27T08:31:56.723Z,18.50
2022-07-27T08:36:08.117Z,18.70
2022-07-27T08:44:47.241Z,18.90
2022-07-27T08:48:56.071Z,19.00
2022-07-27T08:53:08.126Z,19.10
2022-07-27T08:57:17.098Z,19.10
2022-07-27T09:01:25.952Z,19.00
2022-07-27T09:05:37.181Z,19.10
2022-07-27T09:09:49.935Z,19.10
2022-07-27T09:14:03.760Z,19.10
2022-07-27T09:18:18.977Z,19.20
2022-07-27T09:22:45.927Z,19.50
2022-07-27T09:27:04.100Z,19.80
2022-07-27T09:31:15.939Z,20.20
2022-07-27T09:35:26.655Z,20.60
2022-07-27T09:39:35.427Z,20.80
2022-07-27T09:44:29.877Z,21.10
2022-07-27T09:48:20.950Z,21.20
2022-07-27T09:52:31.764Z,21.40
2022-07-27T09:56:40.508Z,21.50
2022-07-27T10:00:58.226Z,21.80
2022-07-27T10:05:07.825Z,22.30
2022-07-27T10:09:16.761Z,22.70
2022-07-27T10:13:26.029Z,22.90
2022-07-27T10:17:37.043Z,23.10
2022-07-27T10:21:48.144Z,23.20
2022-07-27T10:26:29.111Z,23.40
2022-07-27T10:30:38.168Z,23.50
2022-07-27T10:34:48.361Z,23.50
2022-07-27T10:38:58.840Z,23.60
2022-07-27T10:43:19.245Z,24.00
2022-07-27T10:47:34.778Z,23.90
2022-07-27T10:51:44.902Z,23.70
2022-07-27T10:55:54.237Z,23.80
2022-07-27T11:00:09.424Z,23.90
2022-07-27T11:04:21.196Z,24.30
2022-07-27T11:08:39.630Z,24.10
2022-07-27T11:12:55.278Z,24.00
2022-07-27T11:17:47.353Z,23.60
2022-07-27T11:21:37.315Z,23.40
2022-07-27T11:26:00.148Z,23.60
2022-07-27T11:30:23.159Z,23.10
2022-07-27T11:34:33.699Z,22.80
2022-07-27T11:38:51.947Z,22.80
2022-07-27T11:43:02.153Z,22.30
2022-07-27T11:47:17.550Z,21.90
2022-07-27T11:51:26.956Z,22.10
2022-07-27T11:55:35.786Z,22.60
2022-07-27T11:59:47.018Z,22.80
2022-07-27T12:04:05.937Z,22.40
2022-07-27T12:08:15.057Z,22.40
2022-07-27T12:12:26.136Z,22.80
2022-07-27T12:16:36.626Z,22.70
2022-07-27T12:20:48.759Z,22.90
2022-07-27T12:24:58.163Z,23.00
2022-07-27T12:29:08.159Z,22.50
2022-07-27T12:33:30.306Z,22.50
2022-07-27T12:37:42.712Z,22.60
2022-07-27T12:41:51.557Z,22.60
2022-07-27T12:46:00.622Z,22.60
2022-07-27T12:50:13.041Z,22.60
2022-07-27T12:54:21.782Z,22.40
2022-07-27T12:58:30.580Z,22.20
2022-07-27T13:02:39.432Z,22.00
2022-07-27T13:06:49.608Z,22.00
2022-07-27T13:11:01.096Z,22.00
2022-07-27T13:15:11.045Z,22.10
2022-07-27T13:19:19.764Z,22.00
2022-07-27T13:23:30.149Z,21.90
2022-07-27T13:27:39.455Z,22.00
2022-07-27T13:31:53.610Z,22.20
2022-07-27T13:36:07.485Z,22.50
2022-07-27T13:40:17.696Z,23.20
2022-07-27T13:44:58.398Z,23.20
2022-07-27T13:48:55.760Z,23.50
2022-07-27T13:53:04.649Z,23.50
2022-07-27T13:57:14.766Z,23.30
2022-07-27T14:01:23.715Z,22.70
2022-07-27T14:05:32.607Z,22.10
2022-07-27T14:10:01.153Z,21.90
2022-07-27T14:14:11.457Z,21.80
2022-07-27T14:18:20.317Z,22.00
2022-07-27T14:22:29.014Z,22.00
2022-07-27T14:26:37.721Z,21.80
2022-07-27T14:30:48.527Z,22.00
2022-07-27T14:34:57.227Z,22.50
2022-07-27T14:39:06.080Z,22.30
2022-07-27T14:43:14.893Z,21.80
2022-07-27T14:47:25.912Z,21.80
2022-07-27T14:51:35.043Z,22.00
2022-07-27T14:55:43.902Z,22.50
2022-07-27T14:59:52.816Z,22.80
2022-07-27T15:04:03.462Z,23.10
2022-07-27T15:08:12.201Z,23.10
2022-07-27T15:12:21.088Z,22.80
2022-07-27T15:16:31.212Z,23.10
2022-07-27T15:20:41.810Z,23.30
2022-07-27T15:24:51.633Z,23.20
2022-07-27T15:29:00.367Z,23.30
2022-07-27T15:33:09.370Z,23.60
2022-07-27T15:37:19.469Z,23.50
2022-07-27T15:41:28.289Z,23.60
2022-07-27T15:45:38.952Z,23.60
2022-07-27T15:49:47.739Z,23.50
2022-07-27T15:53:58.249Z,23.60
2022-07-27T15:58:08.145Z,23.70
2022-07-27T16:02:16.881Z,23.40
2022-07-27T16:06:38.603Z,23.50
2022-07-27T16:10:50.458Z,23.30
2022-07-27T16:14:59.147Z,23.20
2022-07-27T16:19:12.605Z,22.90
2022-07-27T16:23:23.534Z,22.70
2022-07-27T16:27:33.654Z,22.70
2022-07-27T16:31:42.512Z,22.60
2022-07-27T16:35:51.300Z,22.90
2022-07-27T16:40:00.189Z,23.00
2022-07-27T16:44:11.004Z,23.00
2022-07-27T16:48:20.148Z,23.10
2022-07-27T16:52:29.299Z,23.20
2022-07-27T16:56:39.099Z,22.80
2022-07-27T17:00:49.334Z,22.80
2022-07-27T17:04:58.259Z,22.60
2022-07-27T17:09:07.016Z,22.30
2022-07-27T17:13:15.895Z,22.50
2022-07-27T17:17:26.008Z,22.60
2022-07-27T17:21:34.675Z,22.70
2022-07-27T17:25:43.390Z,22.80
2022-07-27T17:29:52.718Z,22.70
2022-07-27T17:34:03.037Z,22.60
2022-07-27T17:38:14.047Z,22.80
2022-07-27T17:42:24.098Z,22.70
2022-07-27T17:46:38.432Z,22.70
2022-07-27T17:50:49.014Z,22.70
2022-07-27T17:54:57.697Z,22.80
2022-07-27T17:59:34.818Z,22.60
2022-07-27T18:03:35.319Z,22.20
2022-07-27T18:07:45.439Z,21.90
2022-07-27T18:11:54.401Z,21.90
2022-07-27T18:16:03.204Z,22.10
2022-07-27T18:20:12.757Z,22.20
2022-07-27T18:24:24.008Z,22.10
2022-07-27T18:28:39.020Z,21.90
2022-07-27T18:32:48.709Z,21.80
2022-07-27T18:36:57.363Z,21.80
2022-07-27T18:41:08.060Z,21.80
2022-07-27T18:45:16.945Z,21.80
2022-07-27T18:49:26.052Z,21.80
2022-07-27T18:53:34.888Z,21.80
2022-07-27T18:57:45.029Z,21.70
2022-07-27T19:01:53.815Z,21.60
2022-07-27T19:06:02.603Z,21.50
2022-07-27T19:10:11.950Z,21.40
2022-07-27T19:14:23.236Z,21.20
2022-07-27T19:18:32.322Z,21.10
2022-07-27T19:22:45.605Z,21.00
2022-07-27T19:26:54.425Z,20.90
2022-07-27T19:31:04.810Z,20.90
2022-07-27T19:35:13.673Z,20.70
2022-07-27T19:39:22.495Z,20.50
2022-07-27T19:43:32.250Z,20.30
2022-07-27T19:47:42.539Z,20.20
2022-07-27T19:51:51.392Z,20.00
2022-07-27T19:56:00.828Z,19.90
2022-07-27T20:00:11.486Z,19.80
2022-07-27T20:04:22.215Z,19.70
2022-07-27T20:08:32.390Z,19.60
2022-07-27T20:12:41.179Z,19.50
2022-07-27T20:16:50.023Z,19.50
2022-07-27T20:21:00.351Z,19.40
2022-07-27T20:25:10.942Z,19.30
2022-07-27T20:29:19.731Z,19.20
2022-07-27T20:33:32.588Z,19.10
2022-07-27T20:37:43.218Z,19.00
2022-07-27T20:41:51.938Z,19.00
2022-07-27T20:46:00.659Z,18.90
2022-07-27T20:50:11.626Z,18.90
2022-07-27T20:54:29.430Z,18.90
2022-07-27T20:58:38.456Z,18.80
2022-07-27T21:02:48.647Z,18.60
2022-07-27T21:06:57.362Z,18.50
2022-07-27T21:11:07.740Z,18.50
2022-07-27T21:15:16.513Z,18.50
2022-07-27T21:19:26.131Z,18.40
2022-07-27T21:23:53.251Z,18.40
2022-07-27T21:28:03.555Z,18.40
2022-07-27T21:32:12.333Z,18.30
2022-07-27T21:36:21.020Z,18.30
2022-07-27T21:40:29.925Z,18.30
2022-07-27T21:44:40.544Z,18.30
2022-07-27T21:48:49.909Z,18.30
2022-07-27T21:53:00.255Z,18.20
2022-07-27T21:57:08.981Z,18.20
2022-07-27T22:01:19.483Z,18.20
2022-07-27T22:05:28.300Z,18.10
2022-07-27T22:09:39.935Z,18.10
2022-07-27T22:13:52.900Z,18.00
2022-07-27T22:18:03.010Z,17.90
2022-07-27T22:22:12.583Z,17.80
2022-07-27T22:26:21.170Z,17.80
2022-07-27T22:30:30.526Z,17.70
2022-07-27T22:34:42.809Z,17.60
2022-07-27T22:38:53.902Z,17.60
2022-07-27T22:43:03.010Z,17.60
2022-07-27T22:47:13.207Z,17.50
2022-07-27T22:51:23.856Z,17.60
2022-07-27T22:55:33.824Z,17.50
2022-07-27T22:59:43.532Z,17.60
2022-07-27T23:03:52.334Z,17.50
2022-07-27T23:08:02.570Z,17.40
2022-07-27T23:12:11.230Z,17.40
2022-07-27T23:16:19.899Z,17.30
2022-07-27T23:20:28.585Z,17.20
2022-07-27T23:24:41.025Z,17.20
2022-07-27T23:28:50.293Z,17.10
2022-07-27T23:32:58.855Z,17.10
2022-07-27T23:37:07.445Z,17.10
2022-07-27T23:41:17.567Z,17.00
2022-07-27T23:45:26.726Z,17.00
2022-07-27T23:49:35.310Z,17.00
2022-07-27T23:53:44.814Z,16.90
2022-07-27T23:57:54.794Z,16.90
